createdAt,value
2023-02-27T00:00:21.992Z,3.50
2023-02-27T00:02:51.764Z,4.63
2023-02-27T00:05:20.789Z,3.73
2023-02-27T00:07:47.703Z,7.30
2023-02-27T00:10:15.343Z,7.33
2023-02-27T00:12:42.988Z,3.63
2023-02-27T00:15:17.218Z,3.87
2023-02-27T00:17:45.140Z,3.43
2023-02-27T00:20:18.100Z,3.87
2023-02-27T00:22:46.300Z,3.37
2023-02-27T00:25:14.385Z,6.17
2023-02-27T00:27:41.805Z,4.50
2023-02-27T00:30:12.537Z,3.70
2023-02-27T00:32:40.096Z,2.70
2023-02-27T00:35:10.901Z,4.30
2023-02-27T00:37:38.699Z,3.10
2023-02-27T00:40:07.298Z,4.10
2023-02-27T00:42:34.920Z,3.10
2023-02-27T00:45:02.236Z,4.20
2023-02-27T00:47:29.191Z,3.70
2023-02-27T00:49:57.191Z,2.80
2023-02-27T00:52:24.413Z,3.63
2023-02-27T00:54:51.366Z,3.33
2023-02-27T00:57:18.605Z,4.53
2023-02-27T00:59:45.796Z,3.63
2023-02-27T01:02:13.104Z,4.27
2023-02-27T01:04:40.120Z,3.00
2023-02-27T01:07:07.735Z,3.23
2023-02-27T01:09:35.037Z,4.73
2023-02-27T01:12:02.344Z,3.30
2023-02-27T01:14:29.310Z,4.10
2023-02-27T01:16:57.853Z,4.70
2023-02-27T01:19:25.637Z,3.90
2023-02-27T01:21:52.702Z,3.50
2023-02-27T01:24:19.927Z,3.27
2023-02-27T01:26:47.683Z,2.40
2023-02-27T01:29:15.780Z,4.00
2023-02-27T01:31:42.912Z,8.10
2023-02-27T01:34:10.059Z,4.10
2023-02-27T01:36:37.088Z,5.70
2023-02-27T01:39:04.738Z,3.63
2023-02-27T01:41:31.793Z,2.90
2023-02-27T01:44:00.207Z,7.20
2023-02-27T01:46:29.124Z,5.10
2023-02-27T01:49:11.955Z,2.70
2023-02-27T01:51:49.465Z,4.40
2023-02-27T01:54:20.754Z,2.80
2023-02-27T01:56:48.156Z,6.23
2023-02-27T01:59:16.708Z,3.87
2023-02-27T02:01:43.858Z,4.17
2023-02-27T02:04:28.455Z,3.97
2023-02-27T02:07:07.271Z,3.03
2023-02-27T02:09:41.031Z,3.07
2023-02-27T02:12:10.258Z,3.57
2023-02-27T02:14:37.145Z,2.80
2023-02-27T02:17:51.408Z,6.03
2023-02-27T02:20:58.718Z,2.40
2023-02-27T02:23:28.478Z,3.90
2023-02-27T02:26:33.584Z,3.63
2023-02-27T02:29:58.555Z,4.57
2023-02-27T02:33:14.435Z,2.53
2023-02-27T02:36:34.809Z,3.40
2023-02-27T02:39:20.190Z,4.00
2023-02-27T02:42:15.042Z,4.47
2023-02-27T02:45:07.695Z,2.97
2023-02-27T02:48:06.348Z,2.30
2023-02-27T02:51:11.628Z,2.43
2023-02-27T02:54:16.920Z,4.40
2023-02-27T02:56:50.979Z,2.90
2023-02-27T02:59:36.485Z,3.30
2023-02-27T03:02:11.145Z,2.30
2023-02-27T03:04:52.804Z,3.43
2023-02-27T03:07:33.139Z,4.30
2023-02-27T03:10:21.783Z,3.67
2023-02-27T03:13:03.157Z,3.23
2023-02-27T03:15:38.728Z,2.77
2023-02-27T03:18:19.599Z,2.47
2023-02-27T03:20:53.039Z,2.77
2023-02-27T03:23:26.721Z,2.00
2023-02-27T03:25:58.054Z,4.27
2023-02-27T03:28:31.085Z,3.27
2023-02-27T03:31:07.355Z,2.50
2023-02-27T03:33:54.669Z,3.90
2023-02-27T03:36:38.505Z,2.53
2023-02-27T03:39:48.079Z,2.20
2023-02-27T03:43:05.718Z,4.20
2023-02-27T03:45:51.340Z,2.27
2023-02-27T03:48:18.398Z,2.37
2023-02-27T03:50:45.397Z,2.00
2023-02-27T03:53:58.537Z,3.97
2023-02-27T03:57:01.567Z,2.27
2023-02-27T03:59:29.658Z,3.00
2023-02-27T04:01:58.295Z,2.40
2023-02-27T04:04:27.616Z,2.53
2023-02-27T04:07:25.141Z,4.77
2023-02-27T04:10:44.534Z,3.90
2023-02-27T04:13:52.394Z,3.70
2023-02-27T04:16:56.743Z,2.83
2023-02-27T04:20:13.587Z,3.10
2023-02-27T04:23:07.605Z,3.87
2023-02-27T04:26:07.756Z,2.73
2023-02-27T04:29:07.863Z,3.27
2023-02-27T04:32:06.259Z,5.80
2023-02-27T04:34:42.468Z,3.73
2023-02-27T04:37:25.005Z,3.57
2023-02-27T04:40:01.022Z,2.57
2023-02-27T04:42:34.240Z,2.27
2023-02-27T04:45:07.727Z,4.17
2023-02-27T04:47:53.020Z,3.57
2023-02-27T04:50:32.530Z,4.93
2023-02-27T04:53:09.062Z,4.37
2023-02-27T04:55:43.900Z,4.60
2023-02-27T04:58:27.333Z,5.70
2023-02-27T05:01:03.870Z,3.60
2023-02-27T05:03:40.118Z,2.47
2023-02-27T05:06:08.952Z,2.63
2023-02-27T05:08:44.755Z,2.50
2023-02-27T05:11:26.103Z,2.87
2023-02-27T05:14:01.524Z,3.20
2023-02-27T05:16:44.814Z,2.40
2023-02-27T05:19:12.028Z,3.43
2023-02-27T05:22:32.599Z,5.23
2023-02-27T05:25:10.863Z,4.27
2023-02-27T05:27:54.072Z,5.17
2023-02-27T05:30:57.679Z,6.30
2023-02-27T05:33:42.883Z,5.23
2023-02-27T05:36:26.222Z,4.87
2023-02-27T05:39:00.230Z,5.00
2023-02-27T05:41:38.803Z,7.57
2023-02-27T05:44:17.104Z,6.23
2023-02-27T05:47:20.138Z,4.23
2023-02-27T05:50:08.125Z,4.93
2023-02-27T05:52:37.550Z,4.30
2023-02-27T05:55:13.010Z,6.70
2023-02-27T05:58:15.064Z,9.30
2023-02-27T06:00:48.872Z,6.83
2023-02-27T06:03:16.024Z,5.20
2023-02-27T06:05:44.239Z,8.00
2023-02-27T06:08:11.928Z,12.90
2023-02-27T06:10:39.155Z,8.30
2023-02-27T06:13:05.994Z,7.57
2023-02-27T06:15:32.982Z,19.80
2023-02-27T06:17:59.988Z,16.27
2023-02-27T06:20:26.962Z,12.67
2023-02-27T06:22:53.975Z,10.83
2023-02-27T06:25:22.064Z,27.80
2023-02-27T06:27:49.279Z,13.73
2023-02-27T06:30:16.653Z,20.67
2023-02-27T06:32:43.558Z,12.10
2023-02-27T06:35:10.537Z,8.40
2023-02-27T06:37:37.619Z,5.50
2023-02-27T06:40:08.794Z,8.30
2023-02-27T06:42:35.753Z,58.60
2023-02-27T06:45:02.707Z,17.63
2023-02-27T06:47:29.579Z,7.10
2023-02-27T06:49:56.669Z,8.30
2023-02-27T06:52:23.806Z,7.50
2023-02-27T06:54:50.826Z,9.73
2023-02-27T06:57:18.868Z,6.33
2023-02-27T06:59:45.913Z,6.90
2023-02-27T07:02:14.850Z,8.83
2023-02-27T07:04:43.138Z,10.10
2023-02-27T07:07:32.840Z,10.90
2023-02-27T07:09:57.497Z,8.67
2023-02-27T07:12:24.424Z,11.40
2023-02-27T07:14:51.330Z,19.13
2023-02-27T07:17:18.334Z,7.83
2023-02-27T07:19:45.583Z,8.33
2023-02-27T07:22:12.853Z,10.13
2023-02-27T07:24:39.903Z,8.33
2023-02-27T07:27:06.873Z,10.97
2023-02-27T07:29:35.766Z,13.67
2023-02-27T07:32:02.886Z,10.57
2023-02-27T07:34:29.972Z,11.93
2023-02-27T07:36:56.969Z,9.50
2023-02-27T07:39:24.042Z,16.87
2023-02-27T07:41:50.943Z,17.13
2023-02-27T07:44:18.075Z,12.93
2023-02-27T07:46:47.065Z,38.93
2023-02-27T07:49:14.378Z,21.00
2023-02-27T07:51:41.572Z,10.67
2023-02-27T07:54:08.610Z,8.07
2023-02-27T07:56:35.653Z,7.43
2023-02-27T07:59:02.893Z,8.33
2023-02-27T08:01:30.102Z,8.07
2023-02-27T08:03:57.149Z,9.70
2023-02-27T08:06:24.493Z,7.80
2023-02-27T08:08:52.091Z,8.93
2023-02-27T08:11:19.461Z,6.83
2023-02-27T08:14:02.976Z,8.90
2023-02-27T08:16:31.557Z,35.40
2023-02-27T08:19:00.063Z,19.93
2023-02-27T08:21:27.877Z,9.13
2023-02-27T08:24:02.103Z,6.00
2023-02-27T08:26:31.341Z,7.33
2023-02-27T08:28:58.405Z,5.03
2023-02-27T08:31:25.363Z,4.23
2023-02-27T08:34:01.146Z,5.33
2023-02-27T08:36:36.616Z,6.03
2023-02-27T08:39:04.438Z,6.50
2023-02-27T08:41:31.454Z,12.93
2023-02-27T08:43:58.555Z,5.73
2023-02-27T08:46:26.016Z,4.00
2023-02-27T08:48:53.165Z,5.03
2023-02-27T08:51:20.174Z,4.63
2023-02-27T08:53:47.064Z,4.87
2023-02-27T08:56:13.939Z,4.83
2023-02-27T08:58:40.892Z,5.17
2023-02-27T09:01:08.052Z,4.63
2023-02-27T09:03:35.123Z,7.50
2023-02-27T09:06:02.055Z,4.23
2023-02-27T09:08:29.084Z,4.97
2023-02-27T09:10:57.712Z,3.53
2023-02-27T09:13:26.737Z,8.27
2023-02-27T09:15:54.267Z,9.93
2023-02-27T09:18:22.160Z,7.40
2023-02-27T09:20:51.139Z,5.23
2023-02-27T09:23:19.166Z,4.67
2023-02-27T09:25:47.568Z,4.73
2023-02-27T09:28:15.823Z,7.57
2023-02-27T09:30:42.809Z,12.57
2023-02-27T09:33:09.831Z,12.57
2023-02-27T09:35:37.594Z,5.23
2023-02-27T09:38:04.904Z,7.33
2023-02-27T09:40:38.932Z,5.57
2023-02-27T09:43:25.041Z,4.83
2023-02-27T09:45:56.085Z,5.67
2023-02-27T09:48:36.089Z,13.33
2023-02-27T09:51:03.548Z,9.83
2023-02-27T09:53:44.704Z,5.77
2023-02-27T09:56:19.393Z,4.57
2023-02-27T09:59:05.876Z,4.90
2023-02-27T10:01:44.719Z,4.23
2023-02-27T10:04:33.084Z,4.37
2023-02-27T10:07:27.599Z,4.37
2023-02-27T10:10:25.350Z,5.80
2023-02-27T10:13:21.596Z,4.33
2023-02-27T10:15:54.753Z,6.10
2023-02-27T10:18:31.209Z,4.63
2023-02-27T10:21:00.546Z,13.27
2023-02-27T10:23:48.706Z,9.90
2023-02-27T10:26:23.229Z,5.83
2023-02-27T10:28:50.147Z,5.63
2023-02-27T10:31:28.469Z,3.77
2023-02-27T10:33:58.499Z,7.10
2023-02-27T10:36:33.681Z,4.40
2023-02-27T10:39:07.971Z,4.67
2023-02-27T10:41:36.577Z,5.23
2023-02-27T10:44:03.968Z,5.63
2023-02-27T10:46:35.496Z,7.33
2023-02-27T10:49:13.665Z,5.40
2023-02-27T10:51:40.583Z,6.20
2023-02-27T10:54:26.792Z,4.43
2023-02-27T10:56:58.050Z,5.67
2023-02-27T10:59:33.894Z,5.10
2023-02-27T11:02:20.966Z,5.33
2023-02-27T11:04:55.573Z,4.70
2023-02-27T11:07:33.060Z,4.40
2023-02-27T11:10:14.380Z,4.10
2023-02-27T11:12:57.052Z,4.83
2023-02-27T11:15:28.494Z,4.67
2023-02-27T11:17:55.584Z,4.30
2023-02-27T11:20:36.134Z,4.90
2023-02-27T11:23:24.663Z,12.73
2023-02-27T11:26:09.926Z,17.03
2023-02-27T11:28:36.886Z,4.50
2023-02-27T11:31:15.113Z,5.67
2023-02-27T11:33:56.002Z,6.17
2023-02-27T11:36:42.508Z,4.83
2023-02-27T11:39:30.416Z,4.60
2023-02-27T11:42:07.881Z,4.33
2023-02-27T11:44:50.275Z,6.90
2023-02-27T11:47:27.107Z,4.43
2023-02-27T11:50:12.569Z,4.13
2023-02-27T11:53:28.738Z,7.37
2023-02-27T11:55:59.615Z,3.60
2023-02-27T11:58:35.087Z,5.40
2023-02-27T12:01:08.570Z,3.73
2023-02-27T12:03:46.259Z,4.00
2023-02-27T12:06:31.539Z,4.37
2023-02-27T12:09:25.535Z,3.00
2023-02-27T12:11:53.180Z,4.03
2023-02-27T12:14:48.079Z,5.90
2023-02-27T12:17:30.389Z,5.03
2023-02-27T12:20:25.508Z,3.47
2023-02-27T12:22:54.623Z,3.97
2023-02-27T12:25:48.576Z,6.80
2023-02-27T12:28:46.091Z,5.47
2023-02-27T12:31:31.914Z,3.80
2023-02-27T12:34:30.997Z,5.50
2023-02-27T12:37:27.080Z,4.13
2023-02-27T12:40:01.812Z,3.97
2023-02-27T12:42:55.242Z,4.00
2023-02-27T12:45:37.434Z,4.63
2023-02-27T12:48:32.325Z,4.30
2023-02-27T12:51:20.853Z,4.17
2023-02-27T12:54:25.019Z,3.60
2023-02-27T12:57:24.040Z,4.80
2023-02-27T13:00:22.455Z,4.97
2023-02-27T13:03:03.784Z,5.00
2023-02-27T13:05:46.533Z,5.60
2023-02-27T13:08:54.518Z,3.97
2023-02-27T13:11:57.364Z,5.70
2023-02-27T13:14:39.490Z,12.10
2023-02-27T13:17:43.593Z,4.50
2023-02-27T13:20:22.262Z,4.00
2023-02-27T13:23:08.325Z,4.20
2023-02-27T13:25:38.935Z,4.37
2023-02-27T13:28:14.215Z,4.90
2023-02-27T13:30:57.390Z,4.23
2023-02-27T13:33:47.722Z,5.40
2023-02-27T13:36:40.647Z,4.30
2023-02-27T13:39:52.556Z,4.20
2023-02-27T13:42:33.077Z,4.70
2023-02-27T13:45:02.190Z,4.23
2023-02-27T13:47:40.282Z,4.00
2023-02-27T13:50:21.187Z,6.30
2023-02-27T13:52:48.571Z,5.17
2023-02-27T13:55:35.241Z,4.50
2023-02-27T13:58:04.860Z,5.13
2023-02-27T14:00:35.576Z,5.10
2023-02-27T14:03:19.508Z,6.00
2023-02-27T14:05:48.607Z,4.63
2023-02-27T14:08:24.272Z,4.03
2023-02-27T14:11:14.241Z,3.80
2023-02-27T14:13:50.176Z,7.27
2023-02-27T14:16:41.817Z,4.60
2023-02-27T14:19:22.556Z,4.80
2023-02-27T14:22:33.106Z,4.37
2023-02-27T14:25:10.527Z,4.67
2023-02-27T14:27:46.540Z,4.83
2023-02-27T14:30:38.972Z,4.37
2023-02-27T14:33:39.644Z,5.83
2023-02-27T14:36:30.120Z,4.80
2023-02-27T14:38:59.259Z,4.97
2023-02-27T14:42:10.634Z,5.00
2023-02-27T14:44:43.701Z,4.73
2023-02-27T14:47:20.850Z,4.90
2023-02-27T14:49:48.457Z,5.70
2023-02-27T14:52:25.905Z,4.50
2023-02-27T14:54:53.716Z,4.23
2023-02-27T14:57:28.816Z,4.80
2023-02-27T14:59:55.802Z,5.40
2023-02-27T15:02:28.074Z,5.37
2023-02-27T15:05:01.237Z,5.87
2023-02-27T15:07:34.056Z,4.63
2023-02-27T15:10:08.261Z,4.90
2023-02-27T15:12:40.001Z,4.40
2023-02-27T15:15:09.730Z,4.93
2023-02-27T15:17:40.345Z,5.00
2023-02-27T15:20:29.680Z,5.27
2023-02-27T15:23:02.805Z,5.63
2023-02-27T15:25:36.637Z,14.47
2023-02-27T15:28:31.029Z,9.83
2023-02-27T15:30:58.226Z,8.40
2023-02-27T15:33:31.050Z,5.70
2023-02-27T15:35:59.334Z,5.67
2023-02-27T15:38:31.723Z,5.67
2023-02-27T15:41:00.902Z,5.73
2023-02-27T15:43:29.647Z,6.27
2023-02-27T15:45:58.176Z,5.17
2023-02-27T15:48:25.748Z,6.63
2023-02-27T15:50:58.499Z,6.03
2023-02-27T15:53:28.450Z,6.00
2023-02-27T15:56:04.331Z,5.73
2023-02-27T15:58:35.640Z,6.87
2023-02-27T16:01:23.396Z,6.07
2023-02-27T16:03:57.829Z,5.93
2023-02-27T16:06:32.998Z,5.57
2023-02-27T16:09:20.719Z,5.27
2023-02-27T16:11:47.629Z,4.90
2023-02-27T16:14:44.445Z,6.07
2023-02-27T16:17:31.864Z,6.70
2023-02-27T16:20:02.376Z,6.20
2023-02-27T16:22:30.561Z,6.80
2023-02-27T16:25:17.323Z,7.20
2023-02-27T16:27:49.068Z,7.63
2023-02-27T16:30:16.593Z,8.20
2023-02-27T16:32:44.182Z,6.90
2023-02-27T16:35:19.749Z,6.87
2023-02-27T16:37:48.150Z,10.00
2023-02-27T16:40:26.684Z,9.70
2023-02-27T16:42:53.858Z,10.70
2023-02-27T16:45:26.894Z,8.60
2023-02-27T16:47:58.442Z,9.97
2023-02-27T16:50:34.793Z,8.70
2023-02-27T16:53:01.737Z,8.73
2023-02-27T16:55:28.850Z,10.87
2023-02-27T16:57:56.081Z,9.80
2023-02-27T17:00:23.744Z,11.20
2023-02-27T17:02:51.496Z,10.63
2023-02-27T17:05:19.103Z,11.00
2023-02-27T17:07:46.615Z,8.70
2023-02-27T17:10:22.154Z,10.53
2023-02-27T17:12:52.504Z,15.53
2023-02-27T17:15:20.665Z,12.57
2023-02-27T17:17:47.701Z,16.37
2023-02-27T17:20:15.117Z,20.80
2023-02-27T17:22:44.514Z,22.10
2023-02-27T17:25:13.042Z,17.43
2023-02-27T17:27:42.366Z,16.07
2023-02-27T17:30:10.665Z,17.10
2023-02-27T17:32:37.625Z,15.23
2023-02-27T17:35:05.503Z,15.53
2023-02-27T17:37:34.748Z,17.60
2023-02-27T17:40:04.731Z,16.80
2023-02-27T17:42:32.702Z,15.37
2023-02-27T17:45:01.453Z,18.60
2023-02-27T17:47:28.785Z,15.50
2023-02-27T17:49:55.663Z,15.10
2023-02-27T17:52:22.816Z,18.00
2023-02-27T17:54:50.030Z,15.67
2023-02-27T17:57:17.173Z,15.77
2023-02-27T17:59:44.067Z,16.40
2023-02-27T18:02:15.215Z,12.53
2023-02-27T18:04:42.764Z,16.50
2023-02-27T18:07:09.837Z,22.00
2023-02-27T18:09:37.121Z,18.27
2023-02-27T18:12:04.101Z,15.70
2023-02-27T18:14:31.152Z,14.13
2023-02-27T18:16:58.267Z,10.70
2023-02-27T18:19:25.259Z,13.03
2023-02-27T18:21:52.453Z,13.77
2023-02-27T18:24:19.719Z,14.27
2023-02-27T18:26:46.717Z,14.00
2023-02-27T18:29:14.455Z,16.77
2023-02-27T18:31:45.433Z,12.23
2023-02-27T18:34:13.163Z,11.73
2023-02-27T18:36:43.224Z,11.03
2023-02-27T18:39:10.753Z,14.23
2023-02-27T18:41:38.247Z,11.63
2023-02-27T18:44:07.288Z,11.73
2023-02-27T18:46:35.020Z,13.37
2023-02-27T18:49:01.973Z,15.83
2023-02-27T18:51:29.011Z,13.60
2023-02-27T18:53:56.536Z,14.47
2023-02-27T18:56:25.642Z,18.73
2023-02-27T18:58:54.033Z,29.10
2023-02-27T19:01:25.762Z,24.07
2023-02-27T19:03:55.924Z,29.17
2023-02-27T19:06:23.064Z,30.13
2023-02-27T19:08:49.997Z,34.37
2023-02-27T19:11:29.650Z,33.60
2023-02-27T19:13:58.000Z,27.13
2023-02-27T19:16:25.713Z,23.17
2023-02-27T19:18:58.511Z,19.60
2023-02-27T19:21:26.712Z,15.47
2023-02-27T19:23:54.357Z,13.67
2023-02-27T19:26:21.810Z,15.17
2023-02-27T19:28:54.145Z,17.17
2023-02-27T19:31:23.804Z,18.67
2023-02-27T19:33:53.560Z,23.77
2023-02-27T19:36:23.568Z,16.90
2023-02-27T19:38:52.500Z,22.10
2023-02-27T19:41:20.699Z,20.53
2023-02-27T19:43:49.298Z,23.33
2023-02-27T19:46:20.721Z,21.00
2023-02-27T19:48:47.890Z,21.90
2023-02-27T19:51:16.205Z,19.60
2023-02-27T19:53:45.968Z,20.27
2023-02-27T19:56:19.616Z,21.07
2023-02-27T19:58:48.184Z,21.47
2023-02-27T20:01:41.880Z,21.53
2023-02-27T20:04:09.084Z,18.97
2023-02-27T20:06:42.446Z,19.70
2023-02-27T20:09:14.881Z,21.03
2023-02-27T20:11:43.660Z,21.73
2023-02-27T20:14:12.296Z,18.73
2023-02-27T20:16:40.754Z,17.77
2023-02-27T20:19:10.576Z,18.30
2023-02-27T20:21:37.674Z,18.40
2023-02-27T20:24:05.182Z,16.10
2023-02-27T20:26:42.920Z,22.20
2023-02-27T20:29:14.727Z,18.50
2023-02-27T20:31:45.126Z,19.80
2023-02-27T20:34:15.979Z,16.80
2023-02-27T20:36:44.261Z,18.30
2023-02-27T20:39:12.554Z,19.37
2023-02-27T20:41:40.465Z,20.57
2023-02-27T20:44:08.661Z,18.40
2023-02-27T20:46:36.324Z,17.20
2023-02-27T20:49:05.844Z,18.53
2023-02-27T20:51:36.751Z,20.60
2023-02-27T20:54:08.018Z,17.37
2023-02-27T20:56:41.409Z,16.87
2023-02-27T20:59:18.755Z,17.27
2023-02-27T21:01:53.068Z,18.07
2023-02-27T21:04:43.151Z,19.13
2023-02-27T21:07:13.624Z,16.47
2023-02-27T21:09:40.850Z,22.23
2023-02-27T21:12:09.321Z,20.57
2023-02-27T21:14:37.453Z,20.47
2023-02-27T21:17:05.720Z,16.97
2023-02-27T21:19:32.815Z,26.30
2023-02-27T21:21:59.962Z,18.03
2023-02-27T21:24:26.907Z,23.00
2023-02-27T21:26:53.856Z,22.07
2023-02-27T21:29:21.793Z,23.97
2023-02-27T21:31:51.122Z,19.10
2023-02-27T21:34:23.376Z,17.60
2023-02-27T21:36:51.556Z,20.57
2023-02-27T21:39:22.908Z,16.37
2023-02-27T21:41:50.804Z,16.60
2023-02-27T21:44:20.406Z,17.03
2023-02-27T21:46:47.566Z,16.53
2023-02-27T21:49:27.642Z,19.10
2023-02-27T21:51:55.298Z,17.23
2023-02-27T21:54:22.735Z,19.67
2023-02-27T21:56:50.068Z,19.30
2023-02-27T21:59:18.910Z,21.30
2023-02-27T22:01:47.594Z,24.67
2023-02-27T22:04:16.582Z,28.73
2023-02-27T22:06:44.119Z,23.27
2023-02-27T22:09:11.649Z,27.50
2023-02-27T22:11:40.826Z,30.37
2023-02-27T22:14:09.745Z,32.13
2023-02-27T22:16:37.818Z,29.17
2023-02-27T22:19:10.557Z,30.23
2023-02-27T22:21:38.566Z,21.70
2023-02-27T22:24:06.720Z,24.83
2023-02-27T22:26:34.307Z,27.60
2023-02-27T22:29:01.328Z,21.87
2023-02-27T22:31:32.681Z,20.63
2023-02-27T22:34:21.463Z,23.50
2023-02-27T22:36:52.184Z,21.43
2023-02-27T22:39:20.516Z,20.13
2023-02-27T22:41:47.384Z,18.67
2023-02-27T22:44:16.343Z,23.80
2023-02-27T22:46:47.687Z,21.80
2023-02-27T22:49:21.791Z,23.23
2023-02-27T22:51:51.183Z,19.33
2023-02-27T22:54:21.283Z,25.10
2023-02-27T22:56:53.104Z,20.27
2023-02-27T22:59:20.689Z,22.03
2023-02-27T23:01:48.606Z,20.90
2023-02-27T23:04:17.157Z,21.77
2023-02-27T23:06:44.954Z,17.80
2023-02-27T23:09:19.340Z,21.03
2023-02-27T23:11:46.636Z,18.07
2023-02-27T23:14:14.743Z,20.70
2023-02-27T23:16:46.579Z,19.77
2023-02-27T23:19:17.554Z,24.53
2023-02-27T23:21:44.711Z,19.50
2023-02-27T23:24:15.850Z,21.80
2023-02-27T23:26:46.473Z,17.13
2023-02-27T23:29:14.002Z,19.83
2023-02-27T23:31:42.431Z,17.60
2023-02-27T23:34:10.415Z,20.10
2023-02-27T23:36:38.729Z,17.87
2023-02-27T23:39:07.176Z,20.37
2023-02-27T23:41:34.948Z,20.27
2023-02-27T23:44:21.250Z,20.33
2023-02-27T23:46:48.180Z,18.17
2023-02-27T23:49:15.142Z,20.53
2023-02-27T23:51:42.808Z,16.87
2023-02-27T23:54:10.505Z,15.73
2023-02-27T23:56:37.934Z,19.20
2023-02-27T23:59:06.844Z,17.67
